createdAt,value
2023-03-18T00:00:01.009Z,7.83
2023-03-18T00:02:49.999Z,7.93
2023-03-18T00:05:38.828Z,7.80
2023-03-18T00:08:27.566Z,7.67
2023-03-18T00:11:20.138Z,7.60
2023-03-18T00:14:09.960Z,7.17
2023-03-18T00:16:58.742Z,7.43
2023-03-18T00:19:48.480Z,7.60
2023-03-18T00:22:39.133Z,7.70
2023-03-18T00:25:28.352Z,7.37
2023-03-18T00:28:18.984Z,6.73
2023-03-18T00:31:09.687Z,6.53
2023-03-18T00:33:58.953Z,6.83
2023-03-18T00:36:50.968Z,7.13
2023-03-18T00:39:44.390Z,7.10
2023-03-18T00:42:39.149Z,6.93
2023-03-18T00:45:30.334Z,6.67
2023-03-18T00:48:19.698Z,7.37
2023-03-18T00:51:08.795Z,7.07
2023-03-18T00:54:02.286Z,6.47
2023-03-18T00:56:51.039Z,7.07
2023-03-18T00:59:39.793Z,6.93
2023-03-18T01:02:30.240Z,6.50
2023-03-18T01:05:19.555Z,7.10
2023-03-18T01:08:08.497Z,6.67
2023-03-18T01:10:57.707Z,5.87
2023-03-18T01:13:46.689Z,5.80
2023-03-18T01:16:35.511Z,6.27
2023-03-18T01:19:26.783Z,6.20
2023-03-18T01:22:16.105Z,6.47
2023-03-18T01:25:09.971Z,5.70
2023-03-18T01:28:00.033Z,6.50
2023-03-18T01:30:49.196Z,5.60
2023-03-18T01:33:41.849Z,5.77
2023-03-18T01:36:32.106Z,5.90
2023-03-18T01:39:27.616Z,6.33
2023-03-18T01:42:18.246Z,6.03
2023-03-18T01:45:18.310Z,5.90
2023-03-18T01:48:14.460Z,5.43
2023-03-18T01:51:07.348Z,5.60
2023-03-18T01:54:00.668Z,5.80
2023-03-18T01:56:50.635Z,5.77
2023-03-18T01:59:43.000Z,5.50
2023-03-18T02:02:32.273Z,5.80
2023-03-18T02:08:12.918Z,5.40
2023-03-18T02:11:04.190Z,5.63
2023-03-18T02:13:53.870Z,5.50
2023-03-18T02:16:46.509Z,5.17
2023-03-18T02:19:50.783Z,4.93
2023-03-18T02:22:44.880Z,5.17
2023-03-18T02:25:40.355Z,4.83
2023-03-18T02:28:33.123Z,5.20
2023-03-18T02:31:23.069Z,5.50
2023-03-18T02:34:13.505Z,4.67
2023-03-18T02:37:04.303Z,4.77
2023-03-18T02:39:53.493Z,4.80
2023-03-18T02:42:42.742Z,4.80
2023-03-18T02:45:44.736Z,4.57
2023-03-18T02:48:39.593Z,4.70
2023-03-18T02:51:29.781Z,4.73
2023-03-18T02:54:20.916Z,4.93
2023-03-18T02:57:09.747Z,5.30
2023-03-18T03:00:01.113Z,4.40
2023-03-18T03:02:51.927Z,4.47
2023-03-18T03:05:41.674Z,4.23
2023-03-18T03:08:31.005Z,4.20
2023-03-18T03:11:21.776Z,3.67
2023-03-18T03:14:17.113Z,3.73
2023-03-18T03:17:09.702Z,4.67
2023-03-18T03:19:59.897Z,4.00
2023-03-18T03:22:49.212Z,4.07
2023-03-18T03:25:40.092Z,3.80
2023-03-18T03:28:29.111Z,4.73
2023-03-18T03:31:18.114Z,4.27
2023-03-18T03:34:06.901Z,4.20
2023-03-18T03:36:56.928Z,4.20
2023-03-18T03:39:49.107Z,4.50
2023-03-18T03:42:37.838Z,4.13
2023-03-18T03:45:27.043Z,4.37
2023-03-18T03:48:16.280Z,3.70
2023-03-18T03:51:05.379Z,4.30
2023-03-18T03:53:55.638Z,4.10
2023-03-18T03:56:45.178Z,4.00
2023-03-18T03:59:33.973Z,3.83
2023-03-18T04:02:53.541Z,4.33
2023-03-18T04:05:44.014Z,3.67
2023-03-18T04:08:33.372Z,4.57
2023-03-18T04:11:26.893Z,4.50
2023-03-18T04:14:16.406Z,4.20
2023-03-18T04:17:05.861Z,3.80
2023-03-18T04:19:54.895Z,4.33
2023-03-18T04:22:46.793Z,3.90
2023-03-18T04:25:37.463Z,4.40
2023-03-18T04:28:27.990Z,3.53
2023-03-18T04:31:16.777Z,4.10
2023-03-18T04:34:05.463Z,4.20
2023-03-18T04:36:55.619Z,3.93
2023-03-18T04:39:46.435Z,4.10
2023-03-18T04:42:35.496Z,4.00
2023-03-18T04:45:26.326Z,4.00
2023-03-18T04:48:18.763Z,3.70
2023-03-18T04:51:09.340Z,3.90
2023-03-18T04:53:58.522Z,7.33
2023-03-18T04:56:51.576Z,3.93
2023-03-18T04:59:40.402Z,3.83
2023-03-18T05:02:31.925Z,3.93
2023-03-18T05:05:21.308Z,3.43
2023-03-18T05:08:12.914Z,4.23
2023-03-18T05:11:02.111Z,3.77
2023-03-18T05:13:52.202Z,3.90
2023-03-18T05:16:43.697Z,4.03
2023-03-18T05:19:34.030Z,3.93
2023-03-18T05:22:36.612Z,4.20
2023-03-18T05:25:36.804Z,3.60
2023-03-18T05:28:26.205Z,3.80
2023-03-18T05:31:41.216Z,4.13
2023-03-18T05:34:29.927Z,3.83
2023-03-18T05:37:20.234Z,3.97
2023-03-18T05:40:19.498Z,4.10
2023-03-18T05:43:26.318Z,3.83
2023-03-18T05:46:19.055Z,4.20
2023-03-18T05:49:28.681Z,3.77
2023-03-18T05:52:38.277Z,4.10
2023-03-18T05:55:33.297Z,4.10
2023-03-18T05:58:22.392Z,4.27
2023-03-18T06:01:16.981Z,4.37
2023-03-18T06:04:07.040Z,3.70
2023-03-18T06:06:57.102Z,3.83
2023-03-18T06:09:47.365Z,3.87
2023-03-18T06:12:36.224Z,4.00
2023-03-18T06:15:25.903Z,3.83
2023-03-18T06:18:15.088Z,4.30
2023-03-18T06:21:07.037Z,4.27
2023-03-18T06:23:57.670Z,4.13
2023-03-18T06:26:49.502Z,3.83
2023-03-18T06:29:39.251Z,4.40
2023-03-18T06:32:34.103Z,4.50
2023-03-18T06:35:23.319Z,4.70
2023-03-18T06:38:14.451Z,3.93
2023-03-18T06:41:04.694Z,4.13
2023-03-18T06:43:59.395Z,3.97
2023-03-18T06:46:51.266Z,4.07
2023-03-18T06:49:39.964Z,3.80
2023-03-18T06:52:37.527Z,4.00
2023-03-18T06:55:32.563Z,4.20
2023-03-18T06:58:21.985Z,3.67
2023-03-18T07:01:26.403Z,4.00
2023-03-18T07:04:16.038Z,3.60
2023-03-18T07:07:05.993Z,3.50
2023-03-18T07:09:56.794Z,3.47
2023-03-18T07:12:45.602Z,3.40
2023-03-18T07:15:34.577Z,3.53
2023-03-18T07:18:25.666Z,4.07
2023-03-18T07:21:14.448Z,4.07
2023-03-18T07:24:03.997Z,3.57
2023-03-18T07:26:53.609Z,3.60
2023-03-18T07:29:42.522Z,3.90
2023-03-18T07:32:32.140Z,3.37
2023-03-18T07:35:22.689Z,3.77
2023-03-18T07:38:13.711Z,4.17
2023-03-18T07:41:02.712Z,3.87
2023-03-18T07:43:51.970Z,3.33
2023-03-18T07:46:41.544Z,3.70
2023-03-18T07:49:30.901Z,3.63
2023-03-18T07:52:21.087Z,3.87
2023-03-18T07:55:10.988Z,3.90
2023-03-18T07:57:59.782Z,3.90
2023-03-18T08:00:49.646Z,3.73
2023-03-18T08:03:38.464Z,3.83
2023-03-18T08:06:27.508Z,3.57
2023-03-18T08:09:17.822Z,3.80
2023-03-18T08:12:07.248Z,3.80
2023-03-18T08:14:56.428Z,4.90
2023-03-18T08:17:45.161Z,3.42
2023-03-18T08:20:33.945Z,3.70
2023-03-18T08:23:22.703Z,4.05
2023-03-18T08:26:13.222Z,3.90
2023-03-18T08:29:02.196Z,3.70
2023-03-18T08:31:51.401Z,3.58
2023-03-18T08:34:40.209Z,4.00
2023-03-18T08:37:29.964Z,3.97
2023-03-18T08:40:20.386Z,3.95
2023-03-18T08:43:11.542Z,3.90
2023-03-18T08:46:00.244Z,3.95
2023-03-18T08:48:48.957Z,3.70
2023-03-18T08:51:38.637Z,3.80
2023-03-18T08:54:27.908Z,4.03
2023-03-18T08:57:17.523Z,4.10
2023-03-18T09:00:09.265Z,3.67
2023-03-18T09:02:58.009Z,3.50
2023-03-18T09:05:49.609Z,3.60
2023-03-18T09:08:39.631Z,3.63
2023-03-18T09:11:29.191Z,3.88
2023-03-18T09:14:18.448Z,3.38
2023-03-18T09:17:09.214Z,4.00
2023-03-18T09:19:57.873Z,3.70
2023-03-18T09:22:47.742Z,3.92
2023-03-18T09:25:36.569Z,3.58
2023-03-18T09:28:25.702Z,3.97
2023-03-18T09:31:15.661Z,3.38
2023-03-18T09:34:07.437Z,3.40
2023-03-18T09:36:58.344Z,4.25
2023-03-18T09:39:47.922Z,3.90
2023-03-18T09:42:47.617Z,3.28
2023-03-18T09:45:45.440Z,3.75
2023-03-18T09:48:53.164Z,3.60
2023-03-18T09:51:52.078Z,3.83
2023-03-18T09:54:44.851Z,3.75
2023-03-18T09:57:38.072Z,3.40
2023-03-18T10:00:31.152Z,3.47
2023-03-18T10:03:29.103Z,3.75
2023-03-18T10:06:19.782Z,3.60
2023-03-18T10:09:16.177Z,3.83
2023-03-18T10:12:14.953Z,3.65
2023-03-18T10:15:13.611Z,3.92
2023-03-18T10:18:06.821Z,3.78
2023-03-18T10:21:09.230Z,4.00
2023-03-18T10:24:10.323Z,3.50
2023-03-18T10:27:10.616Z,3.30
2023-03-18T10:30:05.350Z,3.42
2023-03-18T10:33:05.648Z,3.60
2023-03-18T10:36:00.972Z,3.53
2023-03-18T10:38:51.899Z,3.58
2023-03-18T10:41:43.653Z,4.40
2023-03-18T10:44:37.350Z,3.25
2023-03-18T10:47:29.472Z,3.75
2023-03-18T10:50:20.903Z,3.63
2023-03-18T10:53:19.877Z,3.60
2023-03-18T10:56:10.544Z,3.55
2023-03-18T10:59:00.173Z,3.70
2023-03-18T11:01:56.166Z,3.30
2023-03-18T11:04:52.333Z,3.75
2023-03-18T11:07:56.822Z,3.30
2023-03-18T11:10:47.052Z,3.78
2023-03-18T11:13:35.937Z,3.55
2023-03-18T11:16:33.309Z,3.92
2023-03-18T11:19:39.403Z,3.70
2023-03-18T11:22:29.161Z,3.40
2023-03-18T11:25:20.180Z,3.40
2023-03-18T11:28:21.109Z,3.00
2023-03-18T11:31:17.891Z,3.30
2023-03-18T11:34:10.262Z,3.75
2023-03-18T11:37:04.843Z,3.50
2023-03-18T11:39:59.015Z,3.72
2023-03-18T11:42:49.672Z,3.83
2023-03-18T11:45:45.330Z,3.65
2023-03-18T11:48:37.588Z,3.40
2023-03-18T11:51:44.705Z,3.60
2023-03-18T11:54:52.457Z,3.65
2023-03-18T11:57:52.482Z,3.40
2023-03-18T12:00:46.701Z,4.28
2023-03-18T12:04:22.041Z,3.80
2023-03-18T12:07:43.055Z,3.30
2023-03-18T12:10:37.584Z,3.50
2023-03-18T12:13:41.165Z,3.47
2023-03-18T12:16:43.388Z,4.38
2023-03-18T12:19:58.980Z,3.78
2023-03-18T12:23:02.271Z,4.32
2023-03-18T12:26:02.336Z,3.80
2023-03-18T12:29:05.203Z,3.75
2023-03-18T12:32:11.209Z,3.83
2023-03-18T12:35:26.077Z,3.70
2023-03-18T12:38:41.958Z,3.53
2023-03-18T12:41:41.798Z,3.70
2023-03-18T12:44:47.807Z,3.90
2023-03-18T12:47:42.256Z,3.50
2023-03-18T12:50:36.382Z,3.40
2023-03-18T12:53:31.992Z,4.97
2023-03-18T12:56:23.787Z,3.90
2023-03-18T12:59:20.868Z,3.65
2023-03-18T13:02:23.042Z,3.50
2023-03-18T13:05:21.810Z,3.85
2023-03-18T13:08:47.364Z,3.80
2023-03-18T13:11:56.014Z,3.55
2023-03-18T13:14:53.115Z,3.78
2023-03-18T13:17:44.695Z,3.63
2023-03-18T13:20:37.896Z,3.60
2023-03-18T13:24:00.674Z,3.40
2023-03-18T13:27:06.929Z,3.72
2023-03-18T13:30:08.565Z,3.58
2023-03-18T13:33:14.639Z,3.53
2023-03-18T13:36:51.632Z,3.97
2023-03-18T13:39:54.148Z,3.53
2023-03-18T13:42:44.673Z,3.58
2023-03-18T13:45:39.192Z,3.93
2023-03-18T13:48:32.091Z,3.88
2023-03-18T13:51:42.096Z,3.97
2023-03-18T13:54:36.087Z,3.72
2023-03-18T13:57:49.524Z,3.67
2023-03-18T14:00:42.313Z,4.20
2023-03-18T14:03:33.310Z,3.88
2023-03-18T14:06:26.596Z,3.80
2023-03-18T14:09:47.355Z,4.47
2023-03-18T14:12:42.029Z,3.95
2023-03-18T14:15:42.919Z,4.18
2023-03-18T14:18:37.662Z,4.13
2023-03-18T14:21:29.168Z,4.40
2023-03-18T14:24:25.211Z,3.92
2023-03-18T14:27:20.393Z,4.30
2023-03-18T14:30:41.477Z,3.67
2023-03-18T14:33:34.995Z,3.90
2023-03-18T14:36:41.394Z,3.92
2023-03-18T14:39:34.580Z,4.18
2023-03-18T14:42:37.215Z,4.18
2023-03-18T14:45:29.404Z,4.40
2023-03-18T14:48:21.585Z,4.20
2023-03-18T14:51:16.482Z,4.40
2023-03-18T14:54:07.140Z,4.68
2023-03-18T14:56:58.092Z,4.25
2023-03-18T14:59:46.862Z,4.75
2023-03-18T15:02:39.863Z,4.20
2023-03-18T15:05:34.811Z,4.30
2023-03-18T15:08:41.134Z,4.97
2023-03-18T15:11:39.801Z,4.70
2023-03-18T15:14:31.244Z,5.07
2023-03-18T15:17:19.980Z,4.38
2023-03-18T15:20:14.372Z,4.80
2023-03-18T15:23:04.383Z,4.55
2023-03-18T15:25:54.680Z,4.35
2023-03-18T15:28:47.960Z,4.90
2023-03-18T15:31:41.688Z,5.40
2023-03-18T15:34:33.718Z,5.10
2023-03-18T15:37:34.255Z,4.82
2023-03-18T15:40:32.368Z,4.47
2023-03-18T15:43:35.594Z,4.55
2023-03-18T15:46:27.334Z,4.60
2023-03-18T15:49:16.570Z,4.55
2023-03-18T15:52:10.120Z,5.28
2023-03-18T15:54:59.286Z,5.65
2023-03-18T15:57:48.206Z,5.22
2023-03-18T16:00:38.846Z,5.60
2023-03-18T16:03:31.466Z,7.65
2023-03-18T16:06:22.973Z,4.93
2023-03-18T16:09:20.357Z,5.35
2023-03-18T16:12:14.695Z,5.65
2023-03-18T16:15:07.180Z,5.72
2023-03-18T16:17:59.021Z,5.32
2023-03-18T16:20:48.885Z,5.80
2023-03-18T16:23:38.059Z,5.70
2023-03-18T16:26:27.730Z,5.50
2023-03-18T16:29:18.876Z,5.47
2023-03-18T16:32:09.945Z,5.75
2023-03-18T16:35:00.924Z,5.65
2023-03-18T16:37:51.084Z,5.57
2023-03-18T16:40:40.137Z,5.50
2023-03-18T16:43:32.019Z,5.35
2023-03-18T16:46:21.489Z,6.00
2023-03-18T16:49:17.431Z,5.13
2023-03-18T16:52:08.240Z,6.60
2023-03-18T16:54:58.157Z,5.50
2023-03-18T16:57:50.877Z,6.45
2023-03-18T17:00:40.101Z,5.88
2023-03-18T17:03:29.584Z,6.07
2023-03-18T17:06:18.969Z,5.82
2023-03-18T17:09:09.928Z,6.43
2023-03-18T17:12:02.444Z,5.55
2023-03-18T17:14:55.192Z,5.93
2023-03-18T17:17:45.911Z,6.15
2023-03-18T17:20:35.200Z,6.05
2023-03-18T17:23:26.897Z,6.63
2023-03-18T17:26:17.444Z,5.63
2023-03-18T17:29:06.417Z,5.97
2023-03-18T17:31:56.222Z,6.80
2023-03-18T17:34:48.148Z,6.85
2023-03-18T17:37:36.834Z,6.78
2023-03-18T17:40:29.900Z,7.30
2023-03-18T17:43:26.471Z,7.93
2023-03-18T17:46:15.195Z,7.97
2023-03-18T17:49:11.800Z,7.80
2023-03-18T17:52:01.025Z,9.15
2023-03-18T17:54:50.103Z,8.18
2023-03-18T17:57:38.952Z,7.88
2023-03-18T18:00:29.390Z,8.93
2023-03-18T18:03:24.350Z,8.93
2023-03-18T18:06:18.880Z,9.18
2023-03-18T18:09:07.830Z,9.38
2023-03-18T18:11:56.612Z,9.40
2023-03-18T18:14:46.501Z,9.68
2023-03-18T18:17:37.330Z,9.20
2023-03-18T18:20:26.505Z,9.45
2023-03-18T18:23:24.985Z,10.23
2023-03-18T18:26:16.244Z,9.77
2023-03-18T18:29:11.549Z,10.50
2023-03-18T18:32:00.279Z,9.80
2023-03-18T18:34:50.951Z,10.88
2023-03-18T18:37:39.672Z,11.32
2023-03-18T18:40:28.398Z,10.20
2023-03-18T18:43:17.124Z,10.40
2023-03-18T18:46:11.986Z,10.90
2023-03-18T18:49:01.053Z,11.02
2023-03-18T18:51:53.489Z,11.27
2023-03-18T18:54:42.865Z,11.02
2023-03-18T18:57:33.415Z,11.88
2023-03-18T19:00:24.612Z,11.50
2023-03-18T19:03:16.153Z,11.73
2023-03-18T19:06:06.955Z,12.63
2023-03-18T19:08:57.854Z,12.55
2023-03-18T19:11:47.052Z,12.10
2023-03-18T19:14:35.783Z,13.32
2023-03-18T19:17:25.720Z,13.98
2023-03-18T19:20:32.462Z,13.48
2023-03-18T19:23:25.964Z,13.82
2023-03-18T19:26:17.984Z,12.90
2023-03-18T19:29:07.142Z,13.85
2023-03-18T19:31:56.026Z,14.23
2023-03-18T19:34:45.780Z,15.55
2023-03-18T19:37:36.476Z,14.10
2023-03-18T19:40:30.381Z,15.35
2023-03-18T19:43:23.176Z,14.65
2023-03-18T19:46:17.864Z,14.10
2023-03-18T19:49:13.924Z,13.25
2023-03-18T19:52:03.821Z,14.98
2023-03-18T19:54:53.571Z,14.10
2023-03-18T19:57:44.823Z,15.07
2023-03-18T20:00:35.180Z,14.75
2023-03-18T20:03:26.791Z,13.63
2023-03-18T20:06:16.798Z,13.60
2023-03-18T20:09:05.645Z,14.95
2023-03-18T20:11:59.726Z,13.30
2023-03-18T20:14:48.916Z,14.40
2023-03-18T20:17:41.284Z,14.75
2023-03-18T20:20:32.207Z,14.23
2023-03-18T20:23:23.767Z,14.18
2023-03-18T20:26:12.765Z,14.18
2023-03-18T20:29:01.736Z,14.07
2023-03-18T20:31:50.595Z,13.93
2023-03-18T20:34:41.725Z,13.50
2023-03-18T20:37:34.825Z,14.93
2023-03-18T20:40:25.899Z,14.23
2023-03-18T20:43:16.315Z,14.00
2023-03-18T20:46:05.115Z,13.93
2023-03-18T20:48:53.863Z,13.57
2023-03-18T20:51:44.403Z,13.75
2023-03-18T20:54:33.454Z,13.85
2023-03-18T20:57:22.547Z,14.00
2023-03-18T21:00:17.014Z,13.50
2023-03-18T21:03:06.418Z,14.13
2023-03-18T21:05:57.506Z,13.93
2023-03-18T21:08:47.786Z,14.18
2023-03-18T21:11:37.349Z,14.52
2023-03-18T21:14:26.753Z,14.05
2023-03-18T21:17:20.256Z,13.30
2023-03-18T21:20:22.181Z,14.18
2023-03-18T21:23:21.165Z,14.57
2023-03-18T21:26:12.081Z,14.20
2023-03-18T21:29:01.212Z,14.07
2023-03-18T21:31:50.004Z,14.88
2023-03-18T21:34:38.768Z,13.95
2023-03-18T21:37:28.642Z,13.52
2023-03-18T21:40:19.894Z,14.85
2023-03-18T21:43:28.374Z,13.85
2023-03-18T21:46:19.877Z,15.15
2023-03-18T21:49:08.614Z,14.77
2023-03-18T21:51:57.546Z,14.57
2023-03-18T21:54:47.342Z,14.88
2023-03-18T21:57:37.235Z,14.50
2023-03-18T22:00:27.647Z,14.48
2023-03-18T22:03:18.461Z,15.10
2023-03-18T22:06:07.886Z,15.63
2023-03-18T22:08:58.014Z,15.60
2023-03-18T22:11:46.759Z,15.18
2023-03-18T22:14:35.587Z,15.52
2023-03-18T22:17:28.305Z,15.32
2023-03-18T22:20:17.418Z,15.50
2023-03-18T22:23:18.543Z,14.55
2023-03-18T22:26:07.421Z,14.65
2023-03-18T22:28:56.111Z,12.90
2023-03-18T22:31:45.395Z,14.38
2023-03-18T22:34:35.675Z,14.93
2023-03-18T22:37:26.630Z,14.60
2023-03-18T22:40:19.336Z,14.23
2023-03-18T22:43:25.166Z,14.50
2023-03-18T22:46:14.134Z,15.55
2023-03-18T22:49:08.124Z,15.02
2023-03-18T22:51:58.293Z,14.43
2023-03-18T22:54:47.061Z,14.93
2023-03-18T22:57:35.809Z,14.80
2023-03-18T23:00:27.468Z,15.38
2023-03-18T23:03:18.898Z,14.07
2023-03-18T23:06:09.395Z,15.30
2023-03-18T23:08:59.554Z,14.60
2023-03-18T23:11:48.258Z,14.30
2023-03-18T23:14:37.300Z,14.93
2023-03-18T23:17:27.966Z,15.75
2023-03-18T23:20:18.555Z,15.35
2023-03-18T23:23:07.354Z,15.52
2023-03-18T23:25:57.827Z,15.95
2023-03-18T23:28:46.722Z,15.50
2023-03-18T23:31:35.604Z,15.85
2023-03-18T23:34:24.523Z,15.55
2023-03-18T23:37:13.983Z,16.08
2023-03-18T23:40:03.232Z,15.70
2023-03-18T23:42:53.407Z,16.17
2023-03-18T23:45:42.164Z,16.27
2023-03-18T23:48:32.115Z,16.58
2023-03-18T23:51:20.734Z,16.65
2023-03-18T23:54:09.705Z,15.90
2023-03-18T23:56:58.724Z,17.30
2023-03-18T23:59:48.772Z,17.38
